createdAt,value
2022-08-03T00:01:50.103Z,5.47
2022-08-03T00:04:16.637Z,5.77
2022-08-03T00:06:43.160Z,5.83
2022-08-03T00:09:10.159Z,6.10
2022-08-03T00:11:36.796Z,5.87
2022-08-03T00:14:05.388Z,5.87
2022-08-03T00:16:38.067Z,5.57
2022-08-03T00:19:05.156Z,5.53
2022-08-03T00:21:31.870Z,6.20
2022-08-03T00:23:58.359Z,6.13
2022-08-03T00:26:24.936Z,6.50
2022-08-03T00:28:51.419Z,6.00
2022-08-03T00:31:28.386Z,5.90
2022-08-03T00:34:06.009Z,6.50
2022-08-03T00:36:33.626Z,6.17
2022-08-03T00:39:00.758Z,5.80
2022-08-03T00:41:28.184Z,6.37
2022-08-03T00:43:54.616Z,5.63
2022-08-03T00:46:23.235Z,6.10
2022-08-03T00:48:50.280Z,5.60
2022-08-03T00:51:16.830Z,5.90
2022-08-03T00:53:43.509Z,6.67
2022-08-03T00:56:13.784Z,5.90
2022-08-03T00:58:40.416Z,5.90
2022-08-03T01:01:07.271Z,6.40
2022-08-03T01:03:34.453Z,6.70
2022-08-03T01:06:34.307Z,6.40
2022-08-03T01:09:19.687Z,5.83
2022-08-03T01:12:22.006Z,5.87
2022-08-03T01:15:00.268Z,6.00
2022-08-03T01:17:36.862Z,6.27
2022-08-03T01:20:13.642Z,6.27
2022-08-03T01:23:29.056Z,6.70
2022-08-03T01:26:20.287Z,6.17
2022-08-03T01:29:02.646Z,5.90
2022-08-03T01:32:54.511Z,5.97
2022-08-03T01:34:34.370Z,5.87
2022-08-03T01:37:05.470Z,5.67
2022-08-03T01:39:32.885Z,5.90
2022-08-03T01:42:06.186Z,6.60
2022-08-03T01:44:40.226Z,6.40
2022-08-03T01:47:08.569Z,6.37
2022-08-03T01:49:43.291Z,6.50
2022-08-03T01:52:11.386Z,6.20
2022-08-03T01:54:43.182Z,5.73
2022-08-03T01:57:13.999Z,6.17
2022-08-03T01:59:42.909Z,5.97
2022-08-03T02:02:32.369Z,5.87
2022-08-03T02:05:01.945Z,6.13
2022-08-03T02:07:30.698Z,5.77
2022-08-03T02:09:59.660Z,5.87
2022-08-03T02:12:29.954Z,5.73
2022-08-03T02:14:59.934Z,6.07
2022-08-03T02:17:39.501Z,5.90
2022-08-03T02:20:08.374Z,5.90
2022-08-03T02:22:35.950Z,5.93
2022-08-03T02:25:02.653Z,5.73
2022-08-03T02:27:31.935Z,6.27
2022-08-03T02:30:03.611Z,5.67
2022-08-03T02:32:40.162Z,5.53
2022-08-03T02:35:13.251Z,5.50
2022-08-03T02:37:49.698Z,5.83
2022-08-03T02:40:19.059Z,5.57
2022-08-03T02:42:47.216Z,5.90
2022-08-03T02:45:16.424Z,6.00
2022-08-03T02:47:53.238Z,5.77
2022-08-03T02:50:23.310Z,5.20
2022-08-03T02:52:52.246Z,5.40
2022-08-03T02:55:21.036Z,5.40
2022-08-03T02:57:48.661Z,5.57
2022-08-03T03:00:27.320Z,5.43
2022-08-03T03:02:57.462Z,5.67
2022-08-03T03:05:54.960Z,5.53
2022-08-03T03:08:18.526Z,5.70
2022-08-03T03:10:46.477Z,5.90
2022-08-03T03:13:15.676Z,5.50
2022-08-03T03:15:44.586Z,6.00
2022-08-03T03:18:12.693Z,5.63
2022-08-03T03:20:40.830Z,5.90
2022-08-03T03:23:09.205Z,6.20
2022-08-03T03:25:36.215Z,5.83
2022-08-03T03:28:06.378Z,5.77
2022-08-03T03:30:34.509Z,6.30
2022-08-03T03:33:02.913Z,6.47
2022-08-03T03:35:30.875Z,6.47
2022-08-03T03:38:09.400Z,6.23
2022-08-03T03:40:36.991Z,6.40
2022-08-03T03:43:08.824Z,5.80
2022-08-03T03:45:35.925Z,5.13
2022-08-03T03:48:05.502Z,6.73
2022-08-03T03:50:33.778Z,6.20
2022-08-03T03:53:02.770Z,5.93
2022-08-03T03:55:30.937Z,5.90
2022-08-03T03:57:57.383Z,6.90
2022-08-03T04:00:24.155Z,6.10
2022-08-03T04:02:50.999Z,5.97
2022-08-03T04:05:36.246Z,5.33
2022-08-03T04:08:21.932Z,5.20
2022-08-03T04:11:02.781Z,5.40
2022-08-03T04:13:34.412Z,5.43
2022-08-03T04:16:03.077Z,5.57
2022-08-03T04:18:32.898Z,5.50
2022-08-03T04:21:04.472Z,5.40
2022-08-03T04:23:34.672Z,5.93
2022-08-03T04:26:03.731Z,5.87
2022-08-03T04:28:32.757Z,6.03
2022-08-03T04:31:04.453Z,5.30
2022-08-03T04:33:34.958Z,5.67
2022-08-03T04:36:05.898Z,5.43
2022-08-03T04:38:36.714Z,6.73
2022-08-03T04:41:04.056Z,6.17
2022-08-03T04:43:33.645Z,6.43
2022-08-03T04:46:01.678Z,5.80
2022-08-03T04:48:28.633Z,5.20
2022-08-03T04:50:55.167Z,5.20
2022-08-03T04:53:21.812Z,6.20
2022-08-03T04:55:49.880Z,5.30
2022-08-03T04:58:16.548Z,5.80
2022-08-03T05:00:43.320Z,5.33
2022-08-03T05:03:23.884Z,5.53
2022-08-03T05:05:53.073Z,5.20
2022-08-03T05:08:29.007Z,5.50
2022-08-03T05:10:59.051Z,4.90
2022-08-03T05:13:26.673Z,5.50
2022-08-03T05:15:53.095Z,5.80
2022-08-03T05:18:19.718Z,5.83
2022-08-03T05:20:46.205Z,5.73
2022-08-03T05:23:12.802Z,5.57
2022-08-03T05:25:39.452Z,5.33
2022-08-03T05:28:06.007Z,5.80
2022-08-03T05:30:33.910Z,6.10
2022-08-03T05:33:02.352Z,5.20
2022-08-03T05:35:57.767Z,5.60
2022-08-03T05:38:24.068Z,5.50
2022-08-03T05:40:57.460Z,5.43
2022-08-03T05:43:41.530Z,5.20
2022-08-03T05:46:12.510Z,5.50
2022-08-03T05:48:39.959Z,5.37
2022-08-03T05:51:08.398Z,5.07
2022-08-03T05:53:35.584Z,5.30
2022-08-03T05:56:03.589Z,5.03
2022-08-03T05:58:42.540Z,4.80
2022-08-03T06:01:09.029Z,5.17
2022-08-03T06:03:35.754Z,4.60
2022-08-03T06:06:03.967Z,5.07
2022-08-03T06:08:30.772Z,4.13
2022-08-03T06:10:57.448Z,4.70
2022-08-03T06:13:24.982Z,4.50
2022-08-03T06:15:51.426Z,4.23
2022-08-03T06:18:17.925Z,4.10
2022-08-03T06:20:44.358Z,4.37
2022-08-03T06:23:15.983Z,3.60
2022-08-03T06:25:43.067Z,3.93
2022-08-03T06:28:18.935Z,3.90
2022-08-03T06:30:55.594Z,3.93
2022-08-03T06:33:22.000Z,4.10
2022-08-03T06:35:48.452Z,3.70
2022-08-03T06:38:14.904Z,3.50
2022-08-03T06:40:41.548Z,3.50
2022-08-03T06:43:12.204Z,4.50
2022-08-03T06:45:39.501Z,3.43
2022-08-03T06:48:11.261Z,3.87
2022-08-03T06:50:39.603Z,3.80
2022-08-03T06:53:06.160Z,3.40
2022-08-03T06:55:33.020Z,3.70
2022-08-03T06:58:00.105Z,3.50
2022-08-03T07:00:30.985Z,2.90
2022-08-03T07:02:58.410Z,3.10
2022-08-03T07:05:25.345Z,3.50
2022-08-03T07:07:55.674Z,3.50
2022-08-03T07:10:22.187Z,3.50
2022-08-03T07:12:55.546Z,3.20
2022-08-03T07:15:53.999Z,3.23
2022-08-03T07:18:09.771Z,3.07
2022-08-03T07:20:36.266Z,3.30
2022-08-03T07:23:03.134Z,3.47
2022-08-03T07:25:29.734Z,3.00
2022-08-03T07:27:56.351Z,3.50
2022-08-03T07:30:30.567Z,3.13
2022-08-03T07:32:57.105Z,3.33
2022-08-03T07:35:25.511Z,3.13
2022-08-03T07:37:54.520Z,3.10
2022-08-03T07:40:22.019Z,3.20
2022-08-03T07:42:48.565Z,3.22
2022-08-03T07:45:21.332Z,3.05
2022-08-03T07:47:53.750Z,3.00
2022-08-03T07:50:20.701Z,2.88
2022-08-03T07:52:51.261Z,2.88
2022-08-03T07:55:19.973Z,2.88
2022-08-03T07:57:47.349Z,2.85
2022-08-03T08:00:17.170Z,3.20
2022-08-03T08:02:44.633Z,3.17
2022-08-03T08:05:12.462Z,2.70
2022-08-03T08:07:40.036Z,3.10
2022-08-03T08:10:09.954Z,3.00
2022-08-03T08:12:37.695Z,2.90
2022-08-03T08:15:04.790Z,2.70
2022-08-03T08:17:31.574Z,2.60
2022-08-03T08:19:58.260Z,2.72
2022-08-03T08:22:30.772Z,2.78
2022-08-03T08:24:59.697Z,2.47
2022-08-03T08:28:22.540Z,2.45
2022-08-03T08:30:24.676Z,2.47
2022-08-03T08:32:51.327Z,2.75
2022-08-03T08:35:18.479Z,2.58
2022-08-03T08:37:51.147Z,2.60
2022-08-03T08:40:20.930Z,2.15
2022-08-03T08:42:57.908Z,2.50
2022-08-03T08:45:25.377Z,2.67
2022-08-03T08:47:54.735Z,2.30
2022-08-03T08:50:27.789Z,2.42
2022-08-03T08:52:55.352Z,2.50
2022-08-03T08:55:24.549Z,2.25
2022-08-03T08:58:03.118Z,2.20
2022-08-03T09:00:30.933Z,2.10
2022-08-03T09:02:57.731Z,2.40
2022-08-03T09:05:54.607Z,2.30
2022-08-03T09:08:11.327Z,2.13
2022-08-03T09:10:37.779Z,2.40
2022-08-03T09:13:04.390Z,2.30
2022-08-03T09:15:33.272Z,2.35
2022-08-03T09:18:02.487Z,2.13
2022-08-03T09:20:32.429Z,2.35
2022-08-03T09:23:20.235Z,2.40
2022-08-03T09:25:59.877Z,2.67
2022-08-03T09:28:53.936Z,2.33
2022-08-03T09:31:34.138Z,2.45
2022-08-03T09:34:07.784Z,2.00
2022-08-03T09:36:49.164Z,2.50
2022-08-03T09:39:41.582Z,2.22
2022-08-03T09:42:15.012Z,2.20
2022-08-03T09:44:44.015Z,2.05
2022-08-03T09:47:12.180Z,2.33
2022-08-03T09:49:41.539Z,2.60
2022-08-03T09:52:32.567Z,2.15
2022-08-03T09:55:02.300Z,2.30
2022-08-03T09:57:33.306Z,2.30
2022-08-03T10:00:14.668Z,2.50
2022-08-03T10:02:43.273Z,2.15
2022-08-03T10:05:19.625Z,2.47
2022-08-03T10:07:48.908Z,2.15
2022-08-03T10:10:32.048Z,2.42
2022-08-03T10:13:03.475Z,2.33
2022-08-03T10:16:22.945Z,2.17
2022-08-03T10:18:17.979Z,2.00
2022-08-03T10:20:49.819Z,2.40
2022-08-03T10:23:18.192Z,2.20
2022-08-03T10:25:49.323Z,2.47
2022-08-03T10:28:18.751Z,2.28
2022-08-03T10:30:50.308Z,2.20
2022-08-03T10:33:50.971Z,2.78
2022-08-03T10:36:09.513Z,2.40
2022-08-03T10:38:52.364Z,2.28
2022-08-03T10:41:21.619Z,2.30
2022-08-03T10:43:54.958Z,2.10
2022-08-03T10:46:21.467Z,2.20
2022-08-03T10:48:50.534Z,2.35
2022-08-03T10:51:20.067Z,2.13
2022-08-03T10:53:52.812Z,2.35
2022-08-03T10:56:53.542Z,2.20
2022-08-03T10:59:46.055Z,2.35
2022-08-03T11:02:14.116Z,2.15
2022-08-03T11:04:41.347Z,2.40
2022-08-03T11:07:23.441Z,2.17
2022-08-03T11:09:56.089Z,2.17
2022-08-03T11:12:30.780Z,1.83
2022-08-03T11:15:01.150Z,2.33
2022-08-03T11:17:28.053Z,2.08
2022-08-03T11:19:56.979Z,2.47
2022-08-03T11:22:26.380Z,2.40
2022-08-03T11:24:57.281Z,2.72
2022-08-03T11:27:26.225Z,2.20
2022-08-03T11:30:27.633Z,2.42
2022-08-03T11:32:57.928Z,2.40
2022-08-03T11:35:36.047Z,2.60
2022-08-03T11:38:05.540Z,2.40
2022-08-03T11:40:49.943Z,2.40
2022-08-03T11:43:22.158Z,2.10
2022-08-03T11:45:58.085Z,2.05
2022-08-03T11:48:28.703Z,2.25
2022-08-03T11:50:55.225Z,2.35
2022-08-03T11:53:21.645Z,2.30
2022-08-03T11:55:53.129Z,2.15
2022-08-03T11:59:18.754Z,2.38
2022-08-03T12:01:08.761Z,2.50
2022-08-03T12:03:36.219Z,2.30
2022-08-03T12:06:04.429Z,2.30
2022-08-03T12:08:33.449Z,2.38
2022-08-03T12:11:03.248Z,2.20
2022-08-03T12:14:43.764Z,2.17
2022-08-03T12:16:26.036Z,2.30
2022-08-03T12:19:00.136Z,2.33
2022-08-03T12:21:28.101Z,2.38
2022-08-03T12:24:04.975Z,2.35
2022-08-03T12:26:45.093Z,2.80
2022-08-03T12:29:26.002Z,2.30
2022-08-03T12:31:52.739Z,1.88
2022-08-03T12:34:19.186Z,2.25
2022-08-03T12:36:53.810Z,2.17
2022-08-03T12:39:25.157Z,2.20
2022-08-03T12:41:56.058Z,2.47
2022-08-03T12:44:33.751Z,2.20
2022-08-03T12:47:02.065Z,2.22
2022-08-03T12:49:30.483Z,2.40
2022-08-03T12:52:03.925Z,2.35
2022-08-03T12:54:36.078Z,2.50
2022-08-03T12:57:11.087Z,2.13
2022-08-03T12:59:53.179Z,2.22
2022-08-03T13:02:23.716Z,2.08
2022-08-03T13:04:52.720Z,2.00
2022-08-03T13:07:20.318Z,2.08
2022-08-03T13:09:50.419Z,2.05
2022-08-03T13:12:19.154Z,2.42
2022-08-03T13:14:48.673Z,2.40
2022-08-03T13:17:18.623Z,2.15
2022-08-03T13:19:46.653Z,2.35
2022-08-03T13:22:25.138Z,2.42
2022-08-03T13:24:55.744Z,2.10
2022-08-03T13:28:04.259Z,2.33
2022-08-03T13:30:09.868Z,2.05
2022-08-03T13:32:36.761Z,2.17
2022-08-03T13:35:04.481Z,1.95
2022-08-03T13:37:32.698Z,2.40
2022-08-03T13:40:03.011Z,2.25
2022-08-03T13:42:33.456Z,2.00
2022-08-03T13:45:00.582Z,2.45
2022-08-03T13:47:28.121Z,2.30
2022-08-03T13:50:00.136Z,2.30
2022-08-03T13:52:34.388Z,2.20
2022-08-03T13:55:03.443Z,2.30
2022-08-03T13:58:05.277Z,2.15
2022-08-03T14:00:27.226Z,2.40
2022-08-03T14:03:02.809Z,2.50
2022-08-03T14:05:32.350Z,2.25
2022-08-03T14:08:03.918Z,2.25
2022-08-03T14:10:36.088Z,2.10
2022-08-03T14:13:04.738Z,1.98
2022-08-03T14:15:31.541Z,2.60
2022-08-03T14:17:58.630Z,2.40
2022-08-03T14:20:38.084Z,2.50
2022-08-03T14:23:06.754Z,2.38
2022-08-03T14:25:50.479Z,2.65
2022-08-03T14:28:23.415Z,2.40
2022-08-03T14:30:54.481Z,2.45
2022-08-03T14:33:21.261Z,2.70
2022-08-03T14:35:48.625Z,2.80
2022-08-03T14:38:15.767Z,2.40
2022-08-03T14:40:42.328Z,2.80
2022-08-03T14:43:09.191Z,2.50
2022-08-03T14:45:35.721Z,2.30
2022-08-03T14:50:32.766Z,2.85
2022-08-03T14:50:52.427Z,2.42
2022-08-03T14:53:19.722Z,2.67
2022-08-03T14:55:50.546Z,2.30
2022-08-03T14:58:27.835Z,2.35
2022-08-03T15:00:55.731Z,2.38
2022-08-03T15:03:24.896Z,2.30
2022-08-03T15:05:56.744Z,2.30
2022-08-03T15:08:25.263Z,2.30
2022-08-03T15:10:52.523Z,2.40
2022-08-03T15:13:19.859Z,2.20
2022-08-03T15:15:47.799Z,2.30
2022-08-03T15:18:14.276Z,2.35
2022-08-03T15:20:45.583Z,2.35
2022-08-03T15:23:14.893Z,2.30
2022-08-03T15:26:28.085Z,2.30
2022-08-03T15:28:29.031Z,2.50
2022-08-03T15:30:55.439Z,2.63
2022-08-03T15:33:21.921Z,2.63
2022-08-03T15:35:49.675Z,2.40
2022-08-03T15:38:16.154Z,2.95
2022-08-03T15:40:42.621Z,2.42
2022-08-03T15:43:11.209Z,2.75
2022-08-03T15:45:37.865Z,2.40
2022-08-03T15:48:06.339Z,2.42
2022-08-03T15:50:33.667Z,2.50
2022-08-03T15:53:00.091Z,2.85
2022-08-03T15:55:27.829Z,2.30
2022-08-03T15:59:09.105Z,2.47
2022-08-03T16:00:42.368Z,2.42
2022-08-03T16:03:09.562Z,2.67
2022-08-03T16:05:36.666Z,2.50
2022-08-03T16:08:05.634Z,2.67
2022-08-03T16:10:33.767Z,2.40
2022-08-03T16:13:00.627Z,2.42
2022-08-03T16:15:27.977Z,2.60
2022-08-03T16:17:55.210Z,2.72
2022-08-03T16:20:31.711Z,2.55
2022-08-03T16:23:07.024Z,2.75
2022-08-03T16:25:42.411Z,2.60
2022-08-03T16:28:13.984Z,2.95
2022-08-03T16:30:42.745Z,2.67
2022-08-03T16:33:09.302Z,2.80
2022-08-03T16:35:36.422Z,2.60
2022-08-03T16:38:09.312Z,2.38
2022-08-03T16:40:37.038Z,2.80
2022-08-03T16:43:18.623Z,2.38
2022-08-03T16:45:47.234Z,2.50
2022-08-03T16:48:16.879Z,2.50
2022-08-03T16:50:44.225Z,2.30
2022-08-03T16:53:16.363Z,2.30
2022-08-03T16:55:53.307Z,2.90
2022-08-03T16:58:34.618Z,2.38
2022-08-03T17:01:22.230Z,2.47
2022-08-03T17:04:01.201Z,2.55
2022-08-03T17:06:33.817Z,2.67
2022-08-03T17:09:26.630Z,2.50
2022-08-03T17:12:05.365Z,2.97
2022-08-03T17:14:34.707Z,2.95
2022-08-03T17:17:04.636Z,3.03
2022-08-03T17:19:39.159Z,2.70
2022-08-03T17:22:11.969Z,3.17
2022-08-03T17:24:42.228Z,2.75
2022-08-03T17:28:41.310Z,2.80
2022-08-03T17:30:12.144Z,3.10
2022-08-03T17:32:56.525Z,2.88
2022-08-03T17:35:24.802Z,2.85
2022-08-03T17:38:03.708Z,3.38
2022-08-03T17:40:31.773Z,2.65
2022-08-03T17:43:00.641Z,2.45
2022-08-03T17:45:52.434Z,3.00
2022-08-03T17:48:18.558Z,2.58
2022-08-03T17:51:00.308Z,3.05
2022-08-03T17:53:30.529Z,2.90
2022-08-03T17:56:46.305Z,2.92
2022-08-03T17:59:15.545Z,3.28
2022-08-03T18:02:26.459Z,2.78
2022-08-03T18:05:16.361Z,3.17
2022-08-03T18:07:59.306Z,3.00
2022-08-03T18:10:34.945Z,2.80
2022-08-03T18:13:10.331Z,2.65
2022-08-03T18:15:42.380Z,3.25
2022-08-03T18:18:11.300Z,3.30
2022-08-03T18:20:42.084Z,3.40
2022-08-03T18:23:25.261Z,2.95
2022-08-03T18:26:02.705Z,2.75
2022-08-03T18:28:57.082Z,2.95
2022-08-03T18:31:59.961Z,2.40
2022-08-03T18:34:18.571Z,2.90
2022-08-03T18:37:04.362Z,2.90
2022-08-03T18:39:49.253Z,3.35
2022-08-03T18:42:19.440Z,2.85
2022-08-03T18:44:54.377Z,3.08
2022-08-03T18:47:52.446Z,3.00
2022-08-03T18:50:28.398Z,2.90
2022-08-03T18:53:03.899Z,3.28
2022-08-03T18:56:08.367Z,3.17
2022-08-03T18:59:02.251Z,2.88
2022-08-03T19:01:59.952Z,3.03
2022-08-03T19:04:33.100Z,3.13
2022-08-03T19:07:36.034Z,3.13
2022-08-03T19:10:06.674Z,2.50
2022-08-03T19:12:54.403Z,2.95
2022-08-03T19:15:36.493Z,2.72
2022-08-03T19:18:11.150Z,2.53
2022-08-03T19:20:38.030Z,2.70
2022-08-03T19:23:05.030Z,3.10
2022-08-03T19:25:41.718Z,2.72
2022-08-03T19:28:11.168Z,2.72
2022-08-03T19:30:39.984Z,3.08
2022-08-03T19:33:11.033Z,3.25
2022-08-03T19:38:29.911Z,3.05
2022-08-03T19:41:00.684Z,3.30
2022-08-03T19:43:49.275Z,3.47
2022-08-03T19:46:30.602Z,3.75
2022-08-03T19:49:15.088Z,3.45
2022-08-03T19:51:58.994Z,3.75
2022-08-03T19:54:45.472Z,4.18
2022-08-03T19:57:23.033Z,3.67
2022-08-03T19:59:52.410Z,3.38
2022-08-03T20:02:26.205Z,3.65
2022-08-03T20:04:59.782Z,3.60
2022-08-03T20:07:34.091Z,3.53
2022-08-03T20:10:04.186Z,3.40
2022-08-03T20:12:38.722Z,3.70
2022-08-03T20:15:07.316Z,3.35
2022-08-03T20:17:55.902Z,3.97
2022-08-03T20:20:25.547Z,4.22
2022-08-03T20:22:57.719Z,4.00
2022-08-03T20:25:38.264Z,3.38
2022-08-03T20:28:13.875Z,3.58
2022-08-03T20:30:43.664Z,4.07
2022-08-03T20:33:10.622Z,4.20
2022-08-03T20:35:37.228Z,3.97
2022-08-03T20:38:10.311Z,4.22
2022-08-03T20:40:41.105Z,4.25
2022-08-03T20:43:08.598Z,4.60
2022-08-03T20:46:00.075Z,4.30
2022-08-03T20:48:23.286Z,4.03
2022-08-03T20:50:51.073Z,4.03
2022-08-03T20:53:57.345Z,4.22
2022-08-03T20:56:05.488Z,5.07
2022-08-03T20:58:35.777Z,4.30
2022-08-03T21:01:04.074Z,4.13
2022-08-03T21:03:40.635Z,3.90
2022-08-03T21:06:27.709Z,3.75
2022-08-03T21:09:05.142Z,4.55
2022-08-03T21:11:44.652Z,4.80
2022-08-03T21:13:02.506Z,3.08
2022-08-03T21:14:23.470Z,4.57
2022-08-03T21:16:52.137Z,4.15
2022-08-03T21:19:22.514Z,3.95
2022-08-03T21:21:50.237Z,4.93
2022-08-03T21:24:18.100Z,5.30
2022-08-03T21:26:47.374Z,5.53
2022-08-03T21:29:16.778Z,5.32
2022-08-03T21:31:43.487Z,5.07
2022-08-03T21:34:10.594Z,4.45
2022-08-03T21:36:37.994Z,4.07
2022-08-03T21:39:08.374Z,4.70
2022-08-03T21:41:36.874Z,4.55
2022-08-03T21:44:04.658Z,4.90
2022-08-03T21:46:40.574Z,4.63
2022-08-03T21:50:07.320Z,5.57
2022-08-03T21:51:58.638Z,5.45
2022-08-03T21:54:40.835Z,4.97
2022-08-03T21:57:24.075Z,4.53
2022-08-03T21:59:55.596Z,4.50
2022-08-03T22:02:27.995Z,4.40
2022-08-03T22:04:58.608Z,4.18
2022-08-03T22:07:32.310Z,4.20
2022-08-03T22:10:01.088Z,4.38
2022-08-03T22:12:30.549Z,4.30
2022-08-03T22:15:00.583Z,4.53
2022-08-03T22:17:55.332Z,4.38
2022-08-03T22:20:20.214Z,4.63
2022-08-03T22:22:52.151Z,4.43
2022-08-03T22:25:28.906Z,5.03
2022-08-03T22:27:57.070Z,4.70
2022-08-03T22:30:23.945Z,3.72
2022-08-03T22:32:53.258Z,4.32
2022-08-03T22:35:21.277Z,4.45
2022-08-03T22:37:53.426Z,4.30
2022-08-03T22:40:19.981Z,4.45
2022-08-03T22:42:50.616Z,4.65
2022-08-03T22:46:06.139Z,4.90
2022-08-03T22:48:10.936Z,4.00
2022-08-03T22:50:38.320Z,4.25
2022-08-03T22:53:07.463Z,3.63
2022-08-03T22:55:34.333Z,4.60
2022-08-03T22:58:00.825Z,4.10
2022-08-03T23:00:27.268Z,4.20
2022-08-03T23:02:54.926Z,4.10
2022-08-03T23:06:02.272Z,4.28
2022-08-03T23:08:15.197Z,4.87
2022-08-03T23:10:47.014Z,4.00
2022-08-03T23:13:17.027Z,4.13
2022-08-03T23:15:51.401Z,4.43
2022-08-03T23:18:21.907Z,4.00
2022-08-03T23:20:52.474Z,4.47
2022-08-03T23:23:20.605Z,4.27
2022-08-03T23:25:50.453Z,4.00
2022-08-03T23:28:17.756Z,4.30
2022-08-03T23:30:45.001Z,3.90
2022-08-03T23:33:13.745Z,3.90
2022-08-03T23:36:27.552Z,3.87
2022-08-03T23:38:47.249Z,3.57
2022-08-03T23:41:17.453Z,3.90
2022-08-03T23:43:51.978Z,4.13
2022-08-03T23:46:22.019Z,4.20
2022-08-03T23:48:48.561Z,4.23
2022-08-03T23:51:40.259Z,4.43
2022-08-03T23:54:22.205Z,4.27
2022-08-03T23:57:03.242Z,4.10
